TimeHST,TemperatureF,Dew PointF,Humidity,Sea Level PressureIn,VisibilityMPH,Wind Direction,Wind SpeedMPH,Gust SpeedMPH,PrecipitationIn,Events,Conditions,WindDirDegrees,DateUTC
12:23 AM,69.1,69.1,100,30.00,1.5,NNE,16.1,-,0.23,Rain,Heavy Rain,30,2014-01-28 10:23:00
12:38 AM,69.1,69.1,100,30.00,2.0,NE,13.8,25.3,0.42,Rain,Heavy Rain,40,2014-01-28 10:38:00
12:49 AM,69.8,69.8,100,30.00,5.0,NE,11.5,-,0.46,Rain,Light Rain,40,2014-01-28 10:49:00
12:53 AM,69.1,69.1,100,30.00,5.0,NE,13.8,-,0.46,Rain,Light Rain,50,2014-01-28 10:53:00
1:25 AM,70.0,70.0,100,30.01,6.0,North,13.8,-,0.02,Rain,Light Rain,350,2014-01-28 11:25:00
1:33 AM,69.1,69.1,100,30.01,1.8,North,19.6,27.6,0.11,Rain,Heavy Rain,360,2014-01-28 11:33:00
1:48 AM,68.0,68.0,100,30.01,1.2,North,23.0,31.1,0.55,Rain,Heavy Rain,350,2014-01-28 11:48:00
1:53 AM,68.0,68.0,100,30.01,1.2,North,18.4,31.1,0.68,Rain,Heavy Rain,10,2014-01-28 11:53:00
1:59 AM,66.9,66.9,100,30.02,2.0,North,18.4,28.8,0.13,Rain,Heavy Rain,360,2014-01-28 11:59:00
2:10 AM,66.9,66.9,100,30.02,3.0,North,18.4,29.9,0.21,Rain,Heavy Rain,350,2014-01-28 12:10:00
2:25 AM,66.9,66.9,100,30.01,4.0,North,20.7,26.5,0.28,Rain,Rain,350,2014-01-28 12:25:00
2:53 AM,66.9,66.9,100,30.01,3.0,North,15.0,-,0.34,Rain,Heavy Rain,360,2014-01-28 12:53:00
3:01 AM,66.9,66.9,100,30.01,2.0,North,13.8,20.7,0.06,Rain,Heavy Rain,360,2014-01-28 13:01:00
3:15 AM,66.9,66.9,100,30.01,2.5,NNE,15.0,21.9,0.17,Rain,Heavy Rain,20,2014-01-28 13:15:00
3:30 AM,66.0,66.0,100,30.01,3.0,North,15.0,-,0.27,Rain,Rain,360,2014-01-28 13:30:00
3:53 AM,66.0,66.0,100,30.01,5.0,North,13.8,-,0.30,Rain,Rain,350,2014-01-28 13:53:00
4:22 AM,66.0,66.0,100,30.00,5.0,North,12.7,-,0.02,Rain,Light Rain,350,2014-01-28 14:22:00
4:50 AM,66.2,66.2,100,30.01,4.0,North,11.5,-,0.03,Rain,Rain,350,2014-01-28 14:50:00
4:53 AM,66.0,66.0,100,30.00,4.0,NNW,15.0,-,0.04,Rain,Heavy Rain,340,2014-01-28 14:53:00
5:21 AM,66.0,66.0,100,30.01,7.0,NNW,13.8,-,0.02,Rain,Light Rain,340,2014-01-28 15:21:00
5:53 AM,66.0,64.9,96,30.02,10.0,North,15.0,-,0.02,Rain,Light Rain,350,2014-01-28 15:53:00
6:50 AM,66.2,64.4,94,30.06,6.0,North,9.2,-,0.00,Rain,Light Rain,350,2014-01-28 16:50:00
6:53 AM,66.0,64.9,96,30.06,6.0,NNW,10.4,-,0.00,Rain,Light Rain,340,2014-01-28 16:53:00
7:42 AM,64.9,64.9,100,30.06,6.0,North,15.0,21.9,0.01,Rain,Light Rain,350,2014-01-28 17:42:00
7:53 AM,64.9,64.9,100,30.07,7.0,NNW,13.8,-,0.01,Rain,Light Rain,330,2014-01-28 17:53:00
8:24 AM,64.9,64.9,100,30.07,2.0,NNW,12.7,-,0.01,Rain,Rain,330,2014-01-28 18:24:00
8:30 AM,64.9,64.9,100,30.08,2.0,NNW,13.8,-,0.03,Rain,Rain,330,2014-01-28 18:30:00
8:44 AM,64.9,64.9,100,30.08,3.0,NW,11.5,-,0.07,Rain,Light Rain,320,2014-01-28 18:44:00
8:53 AM,64.9,64.9,100,30.09,2.5,NW,11.5,-,0.08,Rain,Rain,320,2014-01-28 18:53:00
9:16 AM,64.9,64.9,100,30.09,1.5,North,11.5,-,0.06,Rain,Heavy Rain,350,2014-01-28 19:16:00
9:23 AM,64.9,64.9,100,30.09,2.5,North,6.9,-,0.11,Rain,Light Rain,360,2014-01-28 19:23:00
9:32 AM,64.9,64.9,100,30.10,6.0,North,4.6,-,0.12,Rain,Light Rain,350,2014-01-28 19:32:00
9:53 AM,66.0,64.9,96,30.09,9.0,West,9.2,-,0.12,Rain,Light Rain,270,2014-01-28 19:53:00
10:53 AM,66.0,64.0,93,30.07,7.0,WNW,11.5,-,0.01,Rain,Rain,300,2014-01-28 20:53:00
11:40 AM,66.0,64.9,96,30.07,10.0,WNW,5.8,-,0.05,Rain,Light Rain,300,2014-01-28 21:40:00
11:53 AM,64.9,64.9,100,30.06,6.0,West,5.8,-,0.05,Rain,Light Rain,280,2014-01-28 21:53:00
12:12 PM,64.9,64.0,97,30.07,2.5,West,6.9,-,0.06,Rain,Heavy Rain,270,2014-01-28 22:12:00
12:26 PM,64.0,64.0,100,30.07,1.5,WNW,6.9,-,0.14,Rain,Heavy Rain,300,2014-01-28 22:26:00
12:48 PM,64.4,64.4,100,30.05,1.0,West,5.8,-,0.35,Rain,Heavy Rain,270,2014-01-28 22:48:00
12:53 PM,64.0,64.0,100,30.04,1.2,West,6.9,-,0.40,Rain,Heavy Rain,270,2014-01-28 22:53:00
1:01 PM,63.0,63.0,100,30.03,3.0,WNW,6.9,-,0.04,Rain,Rain,290,2014-01-28 23:01:00
1:53 PM,64.9,64.9,100,30.03,4.0,WSW,5.8,-,0.13,Rain,Rain,240,2014-01-28 23:53:00
2:01 PM,64.9,64.9,100,30.03,4.0,WSW,5.8,-,0.02,Rain,Rain,250,2014-01-29 00:01:00
2:18 PM,64.9,64.9,100,30.03,6.0,WNW,6.9,-,0.05,Rain,Rain,290,2014-01-29 00:18:00
2:49 PM,64.4,64.4,100,30.04,8.0,South,3.5,-,0.10,Rain,Light Rain,180,2014-01-29 00:49:00
2:53 PM,64.9,64.9,100,30.03,8.0,South,4.6,-,0.11,Rain,Rain,170,2014-01-29 00:53:00
3:27 PM,64.9,64.9,100,30.04,9.0,WSW,6.9,-,0.06,Rain,Light Rain,250,2014-01-29 01:27:00
3:53 PM,64.9,64.9,100,30.02,10.0,NW,8.1,-,0.08,Rain,Light Rain,310,2014-01-29 01:53:00
4:53 PM,66.0,64.0,93,30.05,8.0,NNW,15.0,-,0.09,Rain,Rain,340,2014-01-29 02:53:00
5:53 PM,66.0,64.9,96,30.07,8.0,North,8.1,-,0.10,Rain,Rain,360,2014-01-29 03:53:00
6:53 PM,64.9,64.9,100,30.07,10.0,NNW,4.6,-,0.06,Rain,Light Rain,330,2014-01-29 04:53:00
7:53 PM,64.0,64.0,100,30.07,10.0,SSW,5.8,-,0.02,,Mostly Cloudy,200,2014-01-29 05:53:00
8:31 PM,64.0,64.0,100,30.06,10.0,SSW,6.9,-,0.00,,Overcast,210,2014-01-29 06:31:00
8:51 PM,64.4,64.4,100,30.07,10.0,South,8.1,-,0.01,,Scattered Clouds,180,2014-01-29 06:51:00
8:53 PM,64.9,64.0,97,30.07,10.0,South,6.9,-,0.01,,Scattered Clouds,190,2014-01-29 06:53:00
9:27 PM,66.0,64.9,96,30.09,10.0,WSW,13.8,-,0.00,Rain,Light Rain,240,2014-01-29 07:27:00
9:53 PM,66.9,64.9,93,30.10,10.0,SW,4.6,-,0.00,Rain,Light Rain,220,2014-01-29 07:53:00
10:38 PM,66.0,64.9,96,30.11,10.0,WSW,5.8,-,0.00,,Mostly Cloudy,240,2014-01-29 08:38:00
10:53 PM,66.0,64.9,96,30.10,10.0,West,9.2,-,0.00,,Mostly Cloudy,260,2014-01-29 08:53:00
11:53 PM,66.0,64.0,93,30.05,10.0,West,9.2,-,N/A,,Partly Cloudy,260,2014-01-29 09:53:00